createdAt,value
2018-01-19T00:00:59.626Z,0.00
2018-01-19T00:01:59.606Z,0.00
2018-01-19T00:02:59.610Z,0.00
2018-01-19T00:03:59.579Z,0.00
2018-01-19T00:04:59.547Z,0.00
2018-01-19T00:05:59.533Z,0.00
2018-01-19T00:06:59.516Z,0.00
2018-01-19T00:07:59.505Z,0.00
2018-01-19T00:08:59.489Z,0.00
2018-01-19T00:09:59.471Z,0.00
2018-01-19T00:10:59.458Z,0.00
2018-01-19T00:11:59.442Z,0.00
2018-01-19T00:12:59.430Z,0.00
2018-01-19T00:13:59.416Z,0.00
2018-01-19T00:14:59.397Z,0.00
2018-01-19T00:15:59.385Z,0.00
2018-01-19T00:16:59.366Z,0.00
2018-01-19T00:17:59.357Z,0.00
2018-01-19T00:18:59.340Z,0.00
2018-01-19T00:19:59.323Z,0.00
2018-01-19T00:20:59.306Z,0.00
2018-01-19T00:21:59.294Z,0.00
2018-01-19T00:22:59.278Z,0.00
2018-01-19T00:23:59.264Z,0.00
2018-01-19T00:24:59.252Z,0.00
2018-01-19T00:25:59.244Z,0.00
2018-01-19T00:26:59.219Z,0.00
2018-01-19T00:27:59.205Z,0.00
2018-01-19T00:28:59.190Z,0.00
2018-01-19T00:29:59.174Z,0.00
2018-01-19T00:30:59.157Z,0.00
2018-01-19T00:31:59.145Z,0.00
2018-01-19T00:32:59.130Z,0.00
2018-01-19T00:33:59.110Z,0.00
2018-01-19T00:34:59.100Z,0.00
2018-01-19T00:35:59.084Z,0.00
2018-01-19T00:36:59.069Z,0.00
2018-01-19T00:37:59.052Z,0.00
2018-01-19T00:38:59.038Z,0.00
2018-01-19T00:39:59.023Z,0.00
2018-01-19T00:40:59.009Z,0.00
2018-01-19T00:41:58.993Z,0.00
2018-01-19T00:42:58.979Z,0.00
2018-01-19T00:43:58.964Z,0.00
2018-01-19T00:44:58.951Z,0.00
2018-01-19T00:45:58.933Z,0.00
2018-01-19T00:46:58.921Z,0.00
2018-01-19T00:47:58.902Z,0.00
2018-01-19T00:48:58.890Z,0.00
2018-01-19T00:49:58.878Z,0.00
2018-01-19T00:50:58.863Z,0.00
2018-01-19T00:51:58.842Z,0.00
2018-01-19T00:52:58.830Z,0.00
2018-01-19T00:53:58.817Z,0.00
2018-01-19T00:54:58.803Z,0.00
2018-01-19T00:55:58.794Z,0.00
2018-01-19T00:56:58.774Z,0.00
2018-01-19T00:57:58.750Z,0.00
2018-01-19T00:58:58.743Z,0.00
2018-01-19T00:59:58.724Z,0.00
2018-01-19T01:00:58.714Z,0.00
2018-01-19T01:01:58.695Z,0.00
2018-01-19T01:02:58.683Z,0.00
2018-01-19T01:03:58.673Z,0.00
2018-01-19T01:04:58.654Z,0.00
2018-01-19T01:05:58.638Z,0.00
2018-01-19T01:06:58.626Z,0.00
2018-01-19T01:07:58.607Z,0.00
2018-01-19T01:08:58.596Z,0.00
2018-01-19T01:09:58.582Z,0.00
2018-01-19T01:10:58.564Z,0.00
2018-01-19T01:11:58.547Z,0.00
2018-01-19T01:12:58.535Z,0.00
2018-01-19T01:13:58.524Z,0.00
2018-01-19T01:14:58.506Z,0.00
2018-01-19T01:15:58.495Z,0.00
2018-01-19T01:16:58.475Z,0.00
2018-01-19T01:17:58.461Z,0.00
2018-01-19T01:18:58.451Z,0.00
2018-01-19T01:19:58.432Z,0.00
2018-01-19T01:20:58.417Z,0.00
2018-01-19T01:21:58.404Z,0.00
2018-01-19T01:22:58.390Z,0.00
2018-01-19T01:23:58.372Z,0.00
2018-01-19T01:24:58.361Z,0.00
2018-01-19T01:25:58.343Z,0.00
2018-01-19T01:26:58.331Z,0.00
2018-01-19T01:27:58.314Z,0.00
2018-01-19T01:28:58.303Z,0.00
2018-01-19T01:29:58.282Z,0.00
2018-01-19T01:30:58.271Z,0.00
2018-01-19T01:31:58.256Z,0.00
2018-01-19T01:32:58.242Z,0.00
2018-01-19T01:33:58.228Z,0.00
2018-01-19T01:34:58.209Z,0.00
2018-01-19T01:35:58.197Z,0.00
2018-01-19T01:36:58.184Z,0.00
2018-01-19T01:37:58.168Z,0.00
2018-01-19T01:38:58.153Z,0.00
2018-01-19T01:39:58.137Z,0.00
2018-01-19T01:40:58.122Z,0.00
2018-01-19T01:41:58.107Z,0.00
2018-01-19T01:42:58.103Z,0.00
2018-01-19T01:43:58.081Z,0.00
2018-01-19T01:44:58.063Z,0.00
2018-01-19T01:45:58.046Z,0.00
2018-01-19T01:46:58.034Z,0.00
2018-01-19T01:47:58.015Z,0.00
2018-01-19T01:48:58.008Z,0.00
2018-01-19T01:49:57.988Z,0.00
2018-01-19T01:50:57.974Z,0.00
2018-01-19T01:51:57.963Z,0.00
2018-01-19T01:52:57.945Z,0.00
2018-01-19T01:53:57.930Z,0.00
2018-01-19T01:54:57.914Z,0.00
2018-01-19T01:55:57.900Z,0.00
2018-01-19T01:56:57.887Z,0.00
2018-01-19T01:57:57.876Z,0.00
2018-01-19T01:58:57.859Z,0.00
2018-01-19T01:59:57.840Z,0.00
2018-01-19T02:00:57.827Z,0.00
2018-01-19T02:01:57.811Z,0.00
2018-01-19T02:02:57.796Z,0.00
2018-01-19T02:03:57.782Z,0.00
2018-01-19T02:04:57.766Z,0.00
2018-01-19T02:05:57.751Z,0.00
2018-01-19T02:06:57.736Z,0.00
2018-01-19T02:07:57.722Z,0.00
2018-01-19T02:08:57.706Z,0.00
2018-01-19T02:09:57.697Z,0.00
2018-01-19T02:10:57.679Z,0.00
2018-01-19T02:11:57.664Z,0.00
2018-01-19T02:12:57.650Z,0.00
2018-01-19T02:13:57.634Z,0.00
2018-01-19T02:14:57.619Z,0.00
2018-01-19T02:15:57.601Z,0.00
2018-01-19T02:16:57.585Z,0.00
2018-01-19T02:17:57.572Z,0.00
2018-01-19T02:18:57.562Z,0.00
2018-01-19T02:19:57.545Z,0.00
2018-01-19T02:20:57.536Z,0.00
2018-01-19T02:21:57.514Z,0.00
2018-01-19T02:22:57.505Z,0.00
2018-01-19T02:23:57.487Z,0.00
2018-01-19T02:24:57.477Z,0.00
2018-01-19T02:25:57.462Z,0.00
2018-01-19T02:26:57.450Z,0.00
2018-01-19T02:27:57.429Z,0.00
2018-01-19T02:28:57.411Z,0.00
2018-01-19T02:29:57.394Z,0.00
2018-01-19T02:30:57.386Z,0.00
2018-01-19T02:31:57.369Z,0.00
2018-01-19T02:32:57.356Z,0.00
2018-01-19T02:33:57.339Z,0.00
2018-01-19T02:34:57.326Z,0.00
2018-01-19T02:35:57.308Z,0.00
2018-01-19T02:36:57.297Z,0.00
2018-01-19T02:37:57.281Z,0.00
2018-01-19T02:38:57.264Z,0.00
2018-01-19T02:39:57.252Z,0.00
2018-01-19T02:40:57.235Z,0.00
2018-01-19T02:41:57.223Z,0.00
2018-01-19T02:42:57.207Z,0.00
2018-01-19T02:43:57.196Z,0.00
2018-01-19T02:44:57.174Z,0.00
2018-01-19T02:45:57.167Z,0.00
2018-01-19T02:46:57.155Z,0.00
2018-01-19T02:47:57.135Z,0.00
2018-01-19T02:48:57.120Z,0.00
2018-01-19T02:49:57.150Z,0.00
2018-01-19T02:50:57.089Z,0.00
2018-01-19T02:51:57.076Z,0.00
2018-01-19T02:52:57.062Z,0.00
2018-01-19T02:53:57.048Z,0.00
2018-01-19T02:54:57.033Z,0.00
2018-01-19T02:55:57.019Z,0.00
2018-01-19T02:56:57.001Z,0.00
2018-01-19T02:57:56.984Z,0.00
2018-01-19T02:58:56.973Z,0.00
2018-01-19T02:59:56.959Z,0.00
2018-01-19T03:00:56.943Z,0.00
2018-01-19T03:01:56.928Z,0.00
2018-01-19T03:02:56.914Z,0.00
2018-01-19T03:03:56.897Z,0.00
2018-01-19T03:04:56.886Z,0.00
2018-01-19T03:05:56.867Z,0.00
2018-01-19T03:06:56.854Z,0.00
2018-01-19T03:07:56.840Z,0.00
2018-01-19T03:08:56.827Z,0.00
2018-01-19T03:09:56.814Z,0.00
2018-01-19T03:10:56.794Z,0.00
2018-01-19T03:11:56.782Z,0.00
2018-01-19T03:12:56.766Z,0.00
2018-01-19T03:13:56.751Z,0.00
2018-01-19T03:14:56.735Z,0.00
2018-01-19T03:15:56.720Z,0.00
2018-01-19T03:16:56.708Z,0.00
2018-01-19T03:17:56.689Z,0.00
2018-01-19T03:18:56.677Z,0.00
2018-01-19T03:19:56.662Z,0.00
2018-01-19T03:20:56.654Z,0.00
2018-01-19T03:21:56.633Z,0.00
2018-01-19T03:22:56.615Z,0.00
2018-01-19T03:23:56.602Z,0.00
2018-01-19T03:24:56.584Z,0.00
2018-01-19T03:25:56.575Z,0.00
2018-01-19T03:26:56.564Z,0.00
2018-01-19T03:27:56.545Z,0.00
2018-01-19T03:28:56.542Z,0.00
2018-01-19T03:29:56.516Z,0.00
2018-01-19T03:30:56.505Z,0.00
2018-01-19T03:31:56.485Z,0.00
2018-01-19T03:32:56.471Z,0.00
2018-01-19T03:33:56.454Z,0.00
2018-01-19T03:34:56.442Z,0.00
2018-01-19T03:35:56.426Z,0.00
2018-01-19T03:36:56.413Z,0.00
2018-01-19T03:37:56.401Z,0.00
2018-01-19T03:38:56.383Z,0.00
2018-01-19T03:39:56.371Z,0.00
2018-01-19T03:40:56.351Z,0.00
2018-01-19T03:41:56.337Z,0.00
2018-01-19T03:42:56.327Z,0.00
2018-01-19T03:43:56.306Z,0.00
2018-01-19T03:44:56.299Z,0.00
2018-01-19T03:45:56.277Z,0.00
2018-01-19T03:46:56.265Z,0.00
2018-01-19T03:47:56.251Z,0.00
2018-01-19T03:48:56.234Z,0.00
2018-01-19T03:49:56.221Z,0.00
2018-01-19T03:50:56.202Z,0.00
2018-01-19T03:51:56.197Z,0.00
2018-01-19T03:52:56.176Z,0.00
2018-01-19T03:53:56.163Z,0.00
2018-01-19T03:54:56.145Z,0.00
2018-01-19T03:55:56.131Z,0.00
2018-01-19T03:56:56.124Z,0.00
2018-01-19T03:57:56.104Z,0.00
2018-01-19T03:58:56.089Z,0.00
2018-01-19T03:59:56.080Z,0.00
2018-01-19T04:00:56.060Z,0.00
2018-01-19T04:01:56.042Z,0.00
2018-01-19T04:02:56.031Z,0.00
2018-01-19T04:03:56.013Z,0.00
2018-01-19T04:04:56.001Z,0.00
2018-01-19T04:05:55.986Z,0.00
2018-01-19T04:06:55.970Z,0.00
2018-01-19T04:07:55.956Z,0.00
2018-01-19T04:08:55.940Z,0.00
2018-01-19T04:09:55.924Z,0.00
2018-01-19T04:10:55.908Z,0.00
2018-01-19T04:11:55.899Z,0.00
2018-01-19T04:12:55.885Z,0.00
2018-01-19T04:13:55.867Z,0.00
2018-01-19T04:14:55.852Z,0.00
2018-01-19T04:15:55.843Z,0.00
2018-01-19T04:16:55.823Z,0.00
2018-01-19T04:17:55.809Z,0.00
2018-01-19T04:18:55.793Z,0.00
2018-01-19T04:19:55.778Z,0.00
2018-01-19T04:20:55.762Z,0.00
2018-01-19T04:21:55.749Z,0.00
2018-01-19T04:22:55.733Z,0.00
2018-01-19T04:23:55.722Z,0.00
2018-01-19T04:24:55.704Z,0.00
2018-01-19T04:25:55.688Z,0.00
2018-01-19T04:26:55.674Z,0.00
2018-01-19T04:27:55.657Z,0.00
2018-01-19T04:28:55.644Z,0.00
2018-01-19T04:29:55.634Z,0.00
2018-01-19T04:30:55.613Z,0.00
2018-01-19T04:31:55.605Z,0.00
2018-01-19T04:32:55.590Z,0.00
2018-01-19T04:33:55.571Z,0.00
2018-01-19T04:34:55.563Z,0.00
2018-01-19T04:35:55.544Z,0.00
2018-01-19T04:36:55.527Z,0.00
2018-01-19T04:37:55.509Z,0.00
2018-01-19T04:38:55.500Z,0.00
2018-01-19T04:39:55.485Z,0.00
2018-01-19T04:40:55.469Z,0.00
2018-01-19T04:41:55.456Z,0.00
2018-01-19T04:42:55.445Z,0.00
2018-01-19T04:43:55.425Z,0.00
2018-01-19T04:44:55.411Z,0.00
2018-01-19T04:45:55.399Z,0.00
2018-01-19T04:46:55.383Z,0.00
2018-01-19T04:47:55.366Z,0.00
2018-01-19T04:48:55.351Z,0.00
2018-01-19T04:49:55.337Z,0.00
2018-01-19T04:50:55.336Z,0.00
2018-01-19T04:51:55.304Z,0.00
2018-01-19T04:52:55.291Z,0.00
2018-01-19T04:53:55.279Z,0.00
2018-01-19T04:54:55.264Z,0.00
2018-01-19T04:55:55.248Z,0.00
2018-01-19T04:56:55.234Z,0.00
2018-01-19T04:57:55.221Z,0.00
2018-01-19T04:58:55.205Z,0.00
2018-01-19T04:59:55.192Z,0.00
2018-01-19T05:00:55.177Z,0.00
2018-01-19T05:01:55.159Z,0.00
2018-01-19T05:02:55.149Z,0.00
2018-01-19T05:03:55.134Z,0.00
2018-01-19T05:04:55.115Z,0.00
2018-01-19T05:05:55.108Z,0.00
2018-01-19T05:06:55.086Z,0.00
2018-01-19T05:07:55.075Z,0.00
2018-01-19T05:08:55.059Z,0.00
2018-01-19T05:09:55.043Z,0.00
2018-01-19T05:10:55.030Z,0.00
2018-01-19T05:11:55.013Z,0.00
2018-01-19T05:12:55.003Z,0.00
2018-01-19T05:13:54.984Z,0.00
2018-01-19T05:14:54.972Z,0.00
2018-01-19T05:15:54.955Z,0.00
2018-01-19T05:16:54.944Z,0.00
2018-01-19T05:17:54.929Z,0.00
2018-01-19T05:18:54.912Z,0.00
2018-01-19T05:19:54.899Z,0.00
2018-01-19T05:20:54.885Z,0.00
2018-01-19T05:21:54.876Z,0.00
2018-01-19T05:22:54.854Z,0.00
2018-01-19T05:23:54.840Z,0.00
2018-01-19T05:24:54.824Z,0.00
2018-01-19T05:25:54.813Z,0.00
2018-01-19T05:26:54.796Z,0.00
2018-01-19T05:27:54.781Z,0.00
2018-01-19T05:28:54.767Z,0.00
2018-01-19T05:29:54.748Z,0.00
2018-01-19T05:30:54.737Z,0.00
2018-01-19T05:31:54.724Z,0.00
2018-01-19T05:32:54.711Z,0.00
2018-01-19T05:33:54.693Z,0.00
2018-01-19T05:34:54.690Z,0.00
2018-01-19T05:35:54.666Z,0.00
2018-01-19T05:36:54.647Z,0.00
2018-01-19T05:37:54.632Z,0.00
2018-01-19T05:38:54.621Z,0.00
2018-01-19T05:39:54.605Z,0.00
2018-01-19T05:40:54.590Z,0.00
2018-01-19T05:41:54.574Z,0.00
2018-01-19T05:42:54.561Z,0.00
2018-01-19T05:43:54.545Z,0.00
2018-01-19T05:44:54.528Z,0.00
2018-01-19T05:45:54.518Z,0.00
2018-01-19T05:46:54.500Z,0.00
2018-01-19T05:47:54.487Z,0.00
2018-01-19T05:48:54.469Z,0.00
2018-01-19T05:49:54.456Z,0.00
2018-01-19T05:50:54.444Z,0.00
2018-01-19T05:51:54.424Z,0.00
2018-01-19T05:52:54.413Z,0.00
2018-01-19T05:53:54.397Z,0.00
2018-01-19T05:54:54.384Z,0.00
2018-01-19T05:55:54.370Z,0.00
2018-01-19T05:56:54.353Z,0.00
2018-01-19T05:57:54.337Z,0.00
2018-01-19T05:58:54.320Z,0.00
2018-01-19T05:59:54.310Z,0.00
2018-01-19T06:00:54.295Z,0.00
2018-01-19T06:01:54.275Z,0.00
2018-01-19T06:02:54.259Z,0.00
2018-01-19T06:03:54.249Z,0.00
2018-01-19T06:04:54.233Z,0.00
2018-01-19T06:05:54.217Z,0.00
2018-01-19T06:06:54.203Z,0.00
2018-01-19T06:07:54.190Z,0.00
2018-01-19T06:08:54.174Z,0.00
2018-01-19T06:09:54.159Z,0.00
2018-01-19T06:10:54.145Z,0.00
2018-01-19T06:11:54.130Z,0.00
2018-01-19T06:12:54.159Z,0.00
2018-01-19T06:13:54.098Z,0.00
2018-01-19T06:14:54.085Z,0.00
2018-01-19T06:15:54.069Z,0.00
2018-01-19T06:16:54.054Z,0.00
2018-01-19T06:17:54.038Z,0.00
2018-01-19T06:18:54.023Z,0.00
2018-01-19T06:19:54.013Z,0.00
2018-01-19T06:20:53.995Z,0.00
2018-01-19T06:21:53.981Z,0.00
2018-01-19T06:22:53.966Z,0.00
2018-01-19T06:23:53.949Z,0.00
2018-01-19T06:24:53.933Z,0.00
2018-01-19T06:25:53.919Z,0.00
2018-01-19T06:26:53.899Z,0.00
2018-01-19T06:27:53.892Z,0.00
2018-01-19T06:28:53.872Z,0.00
2018-01-19T06:29:53.860Z,0.00
2018-01-19T06:30:53.841Z,0.00
2018-01-19T06:31:53.830Z,0.00
2018-01-19T06:32:53.820Z,0.00
2018-01-19T06:33:53.795Z,0.00
2018-01-19T06:34:53.781Z,0.00
2018-01-19T06:35:53.768Z,0.00
2018-01-19T06:36:53.755Z,0.00
2018-01-19T06:37:53.736Z,0.00
2018-01-19T06:38:53.721Z,0.00
2018-01-19T06:39:53.698Z,0.00
2018-01-19T06:40:53.690Z,0.00
2018-01-19T06:41:53.679Z,0.00
2018-01-19T06:42:53.661Z,0.00
2018-01-19T06:43:53.648Z,0.00
2018-01-19T06:44:53.630Z,0.00
2018-01-19T06:45:53.619Z,0.00
2018-01-19T06:46:53.602Z,0.00
2018-01-19T06:47:53.581Z,0.00
2018-01-19T06:48:53.564Z,0.00
2018-01-19T06:49:53.560Z,0.00
2018-01-19T06:50:53.541Z,0.00
2018-01-19T06:51:53.525Z,0.00
2018-01-19T06:52:53.512Z,0.00
2018-01-19T06:53:53.492Z,0.00
2018-01-19T06:54:53.486Z,0.00
2018-01-19T06:55:53.466Z,0.00
2018-01-19T06:56:53.447Z,0.00
2018-01-19T06:57:53.435Z,0.00
2018-01-19T06:58:53.418Z,0.00
2018-01-19T06:59:53.402Z,0.00
2018-01-19T07:00:53.388Z,0.00
2018-01-19T07:01:53.369Z,0.00
2018-01-19T07:02:53.354Z,0.00
2018-01-19T07:03:53.341Z,0.00
2018-01-19T07:04:53.327Z,0.00
2018-01-19T07:05:53.314Z,0.00
2018-01-19T07:06:53.296Z,0.00
2018-01-19T07:07:53.284Z,0.00
2018-01-19T07:08:53.265Z,0.00
2018-01-19T07:09:53.253Z,0.00
2018-01-19T07:10:53.235Z,0.00
2018-01-19T07:11:53.220Z,0.00
2018-01-19T07:12:53.207Z,0.00
2018-01-19T07:13:53.189Z,0.00
2018-01-19T07:14:53.176Z,0.00
2018-01-19T07:15:53.156Z,0.00
2018-01-19T07:16:53.142Z,0.00
2018-01-19T07:17:53.129Z,0.00
2018-01-19T07:18:53.165Z,0.00
2018-01-19T07:19:53.100Z,0.00
2018-01-19T07:20:53.088Z,0.00
2018-01-19T07:21:53.069Z,0.00
2018-01-19T07:22:53.049Z,0.00
2018-01-19T07:23:53.040Z,0.00
2018-01-19T07:24:53.021Z,0.00
2018-01-19T07:25:53.002Z,0.00
2018-01-19T07:26:52.998Z,0.00
2018-01-19T07:27:52.977Z,0.00
2018-01-19T07:28:52.967Z,0.00
2018-01-19T07:29:52.946Z,0.00
2018-01-19T07:30:52.931Z,0.00
2018-01-19T07:31:52.921Z,0.00
2018-01-19T07:32:52.900Z,0.00
2018-01-19T07:33:52.885Z,0.00
2018-01-19T07:34:52.870Z,0.00
2018-01-19T07:35:52.855Z,0.00
2018-01-19T07:36:52.843Z,0.00
2018-01-19T07:37:52.826Z,0.00
2018-01-19T07:38:52.810Z,0.00
2018-01-19T07:39:52.790Z,0.00
2018-01-19T07:40:52.777Z,0.00
2018-01-19T07:41:52.769Z,5.63
2018-01-19T07:42:52.752Z,5.63
2018-01-19T07:43:52.731Z,5.63
2018-01-19T07:44:52.715Z,5.63
2018-01-19T07:45:52.699Z,5.63
2018-01-19T07:46:52.693Z,5.63
2018-01-19T07:47:52.676Z,5.63
2018-01-19T07:48:52.654Z,5.63
2018-01-19T07:49:52.644Z,5.63
2018-01-19T07:50:52.623Z,11.25
2018-01-19T07:51:52.610Z,11.25
2018-01-19T07:52:52.596Z,11.25
2018-01-19T07:53:52.579Z,11.25
2018-01-19T07:54:52.567Z,11.25
2018-01-19T07:55:52.549Z,11.25
2018-01-19T07:56:52.536Z,5.63
2018-01-19T07:57:52.517Z,5.63
2018-01-19T07:58:52.499Z,5.63
2018-01-19T07:59:52.487Z,5.63
2018-01-19T08:00:52.470Z,5.63
2018-01-19T08:01:52.458Z,5.63
2018-01-19T08:02:52.440Z,5.63
2018-01-19T08:03:52.431Z,5.63
2018-01-19T08:04:52.416Z,5.63
2018-01-19T08:05:52.396Z,5.63
2018-01-19T08:06:52.386Z,11.25
2018-01-19T08:07:52.366Z,11.25
2018-01-19T08:08:52.351Z,11.25
2018-01-19T08:09:52.338Z,16.88
2018-01-19T08:10:52.315Z,16.88
2018-01-19T08:11:52.305Z,16.88
2018-01-19T08:12:52.289Z,16.88
2018-01-19T08:13:52.276Z,16.88
2018-01-19T08:14:52.258Z,16.88
2018-01-19T08:15:52.246Z,16.88
2018-01-19T08:16:52.228Z,16.88
2018-01-19T08:17:52.213Z,22.50
2018-01-19T08:18:52.198Z,22.50
2018-01-19T08:19:52.182Z,22.50
2018-01-19T08:20:52.168Z,22.50
2018-01-19T08:21:52.151Z,28.13
2018-01-19T08:22:52.138Z,28.13
2018-01-19T08:23:52.126Z,28.13
2018-01-19T08:24:52.104Z,22.50
2018-01-19T08:25:52.091Z,22.50
2018-01-19T08:26:52.080Z,22.50
2018-01-19T08:27:52.062Z,22.50
2018-01-19T08:28:52.050Z,16.88
2018-01-19T08:29:52.034Z,16.88
2018-01-19T08:30:52.019Z,22.50
2018-01-19T08:31:52.002Z,22.50
2018-01-19T08:32:51.988Z,28.13
2018-01-19T08:33:51.972Z,28.13
2018-01-19T08:34:51.958Z,28.13
2018-01-19T08:35:51.940Z,28.13
2018-01-19T08:36:51.925Z,33.75
2018-01-19T08:37:51.916Z,33.75
2018-01-19T08:38:51.897Z,39.38
2018-01-19T08:39:51.883Z,39.38
2018-01-19T08:40:51.870Z,39.38
2018-01-19T08:41:51.852Z,39.38
2018-01-19T08:42:51.837Z,33.75
2018-01-19T08:43:51.813Z,33.75
2018-01-19T08:44:51.806Z,33.75
2018-01-19T08:45:51.788Z,33.75
2018-01-19T08:46:51.776Z,33.75
2018-01-19T08:47:51.761Z,33.75
2018-01-19T08:48:51.751Z,33.75
2018-01-19T08:49:51.730Z,33.75
2018-01-19T08:50:51.716Z,39.38
2018-01-19T08:51:51.703Z,33.75
2018-01-19T08:52:51.687Z,33.75
2018-01-19T08:53:51.670Z,33.75
2018-01-19T08:54:51.652Z,33.75
2018-01-19T08:55:51.642Z,33.75
2018-01-19T08:56:51.624Z,39.38
2018-01-19T08:57:51.614Z,45.00
2018-01-19T08:58:51.591Z,50.63
2018-01-19T08:59:51.580Z,56.25
2018-01-19T09:00:51.562Z,56.25
2018-01-19T09:01:51.557Z,56.25
2018-01-19T09:02:51.533Z,56.25
2018-01-19T09:03:51.521Z,50.63
2018-01-19T09:04:51.504Z,45.00
2018-01-19T09:05:51.492Z,50.63
2018-01-19T09:06:51.470Z,50.63
2018-01-19T09:07:51.457Z,56.25
2018-01-19T09:08:51.444Z,56.25
2018-01-19T09:09:51.430Z,50.63
2018-01-19T09:10:51.414Z,56.25
2018-01-19T09:11:51.401Z,61.88
2018-01-19T09:12:51.438Z,61.88
2018-01-19T09:13:51.364Z,61.88
2018-01-19T09:14:51.357Z,61.88
2018-01-19T09:15:51.339Z,56.25
2018-01-19T09:16:51.323Z,50.63
2018-01-19T09:17:51.308Z,45.00
2018-01-19T09:18:51.292Z,45.00
2018-01-19T09:19:51.279Z,45.00
2018-01-19T09:20:51.259Z,50.63
2018-01-19T09:21:51.240Z,56.25
2018-01-19T09:22:51.232Z,61.88
2018-01-19T09:23:51.217Z,61.88
2018-01-19T09:24:51.203Z,67.50
2018-01-19T09:25:51.184Z,67.50
2018-01-19T09:26:51.174Z,67.50
2018-01-19T09:27:51.154Z,67.50
2018-01-19T09:28:51.141Z,73.13
2018-01-19T09:29:51.129Z,73.13
2018-01-19T09:30:51.109Z,67.50
2018-01-19T09:31:51.098Z,67.50
2018-01-19T09:32:51.080Z,67.50
2018-01-19T09:33:51.067Z,67.50
2018-01-19T09:34:51.048Z,67.50
2018-01-19T09:35:51.034Z,61.88
2018-01-19T09:36:51.020Z,56.25
2018-01-19T09:37:51.007Z,50.63
2018-01-19T09:38:50.990Z,50.63
2018-01-19T09:39:50.988Z,56.25
2018-01-19T09:40:50.964Z,61.88
2018-01-19T09:41:50.945Z,78.75
2018-01-19T09:42:50.937Z,90.00
2018-01-19T09:43:50.911Z,101.25
2018-01-19T09:44:50.900Z,112.50
2018-01-19T09:45:50.884Z,118.13
2018-01-19T09:46:50.871Z,118.13
2018-01-19T09:47:50.853Z,118.13
2018-01-19T09:48:50.836Z,123.75
2018-01-19T09:49:50.826Z,135.00
2018-01-19T09:50:50.809Z,146.25
2018-01-19T09:51:50.797Z,157.50
2018-01-19T09:52:50.779Z,151.88
2018-01-19T09:53:50.763Z,140.63
2018-01-19T09:54:50.749Z,123.75
2018-01-19T09:55:50.731Z,118.13
2018-01-19T09:56:50.719Z,101.25
2018-01-19T09:57:50.699Z,101.25
2018-01-19T09:58:50.688Z,101.25
2018-01-19T09:59:50.674Z,101.25
2018-01-19T10:00:50.658Z,95.63
2018-01-19T10:01:50.646Z,95.63
2018-01-19T10:02:50.636Z,90.00
2018-01-19T10:03:50.614Z,90.00
2018-01-19T10:04:50.600Z,90.00
2018-01-19T10:05:50.585Z,84.38
2018-01-19T10:06:50.572Z,84.38
2018-01-19T10:07:50.554Z,84.38
2018-01-19T10:08:50.548Z,84.38
2018-01-19T10:09:50.526Z,84.38
2018-01-19T10:10:50.516Z,90.00
2018-01-19T10:11:50.495Z,90.00
2018-01-19T10:12:50.484Z,90.00
2018-01-19T10:13:50.472Z,90.00
2018-01-19T10:14:50.454Z,90.00
2018-01-19T10:15:50.442Z,84.38
2018-01-19T10:16:50.421Z,84.38
2018-01-19T10:17:50.410Z,78.75
2018-01-19T10:18:50.397Z,78.75
2018-01-19T10:19:50.381Z,78.75
2018-01-19T10:20:50.370Z,78.75
2018-01-19T10:21:50.352Z,84.38
2018-01-19T10:22:50.339Z,90.00
2018-01-19T10:23:50.321Z,90.00
2018-01-19T10:24:50.311Z,90.00
2018-01-19T10:25:50.296Z,90.00
2018-01-19T10:26:50.282Z,90.00
2018-01-19T10:27:50.314Z,90.00
2018-01-19T10:28:50.253Z,84.38
2018-01-19T10:29:50.238Z,78.75
2018-01-19T10:30:50.220Z,78.75
2018-01-19T10:31:50.207Z,84.38
2018-01-19T10:32:50.193Z,90.00
2018-01-19T10:33:50.180Z,95.63
2018-01-19T10:34:50.164Z,101.25
2018-01-19T10:35:50.145Z,95.63
2018-01-19T10:36:50.135Z,95.63
2018-01-19T10:37:50.123Z,95.63
2018-01-19T10:38:50.107Z,95.63
2018-01-19T10:39:50.090Z,90.00
2018-01-19T10:40:50.076Z,90.00
2018-01-19T10:41:50.063Z,90.00
2018-01-19T10:42:50.052Z,84.38
2018-01-19T10:43:50.038Z,84.38
2018-01-19T10:44:50.021Z,78.75
2018-01-19T10:45:50.007Z,73.13
2018-01-19T10:46:49.991Z,67.50
2018-01-19T10:47:49.984Z,61.88
2018-01-19T10:48:49.964Z,61.88
2018-01-19T10:49:49.953Z,61.88
2018-01-19T10:50:49.939Z,56.25
2018-01-19T10:51:49.928Z,56.25
2018-01-19T10:52:49.910Z,61.88
2018-01-19T10:53:49.894Z,73.13
2018-01-19T10:54:49.883Z,90.00
2018-01-19T10:55:49.867Z,95.63
2018-01-19T10:56:49.853Z,101.25
2018-01-19T10:57:49.838Z,101.25
2018-01-19T10:58:49.825Z,106.88
2018-01-19T10:59:49.813Z,106.88
2018-01-19T11:00:49.800Z,106.88
2018-01-19T11:01:49.784Z,112.50
2018-01-19T11:02:49.768Z,106.88
2018-01-19T11:03:49.753Z,118.13
2018-01-19T11:04:49.744Z,123.75
2018-01-19T11:05:49.724Z,123.75
2018-01-19T11:06:49.712Z,118.13
2018-01-19T11:07:49.696Z,118.13
2018-01-19T11:08:49.686Z,118.13
2018-01-19T11:09:49.664Z,112.50
2018-01-19T11:10:49.656Z,112.50
2018-01-19T11:11:49.644Z,112.50
2018-01-19T11:12:49.629Z,123.75
2018-01-19T11:13:49.611Z,123.75
2018-01-19T11:14:49.597Z,123.75
2018-01-19T11:15:49.584Z,112.50
2018-01-19T11:16:49.574Z,112.50
2018-01-19T11:17:49.559Z,112.50
2018-01-19T11:18:49.544Z,112.50
2018-01-19T11:19:49.528Z,118.13
2018-01-19T11:20:49.518Z,123.75
2018-01-19T11:21:49.505Z,123.75
2018-01-19T11:22:49.489Z,118.13
2018-01-19T11:23:49.476Z,106.88
2018-01-19T11:24:49.462Z,106.88
2018-01-19T11:25:49.452Z,112.50
2018-01-19T11:26:49.433Z,123.75
2018-01-19T11:27:49.419Z,123.75
2018-01-19T11:28:49.403Z,123.75
2018-01-19T11:29:49.390Z,123.75
2018-01-19T11:30:49.379Z,129.38
2018-01-19T11:31:49.361Z,129.38
2018-01-19T11:32:49.348Z,129.38
2018-01-19T11:33:49.334Z,135.00
2018-01-19T11:34:49.322Z,146.25
2018-01-19T11:35:49.306Z,157.50
2018-01-19T11:36:49.290Z,163.13
2018-01-19T11:37:49.276Z,174.38
2018-01-19T11:38:49.263Z,168.75
2018-01-19T11:39:49.245Z,157.50
2018-01-19T11:40:49.236Z,146.25
2018-01-19T11:41:49.224Z,140.63
2018-01-19T11:42:49.208Z,140.63
2018-01-19T11:43:49.192Z,146.25
2018-01-19T11:44:49.177Z,140.63
2018-01-19T11:45:49.165Z,151.88
2018-01-19T11:46:49.152Z,129.38
2018-01-19T11:47:49.136Z,106.88
2018-01-19T11:48:49.127Z,106.88
2018-01-19T11:49:49.109Z,106.88
2018-01-19T11:50:49.096Z,112.50
2018-01-19T11:51:49.082Z,118.13
2018-01-19T11:52:49.070Z,135.00
2018-01-19T11:53:49.053Z,157.50
2018-01-19T11:54:49.046Z,185.63
2018-01-19T11:55:49.026Z,112.50
2018-01-19T11:56:49.014Z,101.25
2018-01-19T11:57:48.998Z,90.00
2018-01-19T11:58:48.981Z,78.75
2018-01-19T11:59:48.974Z,78.75
2018-01-19T12:00:48.964Z,78.75
2018-01-19T12:01:48.948Z,84.38
2018-01-19T12:02:48.932Z,78.75
2018-01-19T12:03:48.918Z,67.50
2018-01-19T12:04:48.911Z,67.50
2018-01-19T12:05:48.890Z,67.50
2018-01-19T12:06:48.878Z,73.13
2018-01-19T12:07:48.863Z,73.13
2018-01-19T12:08:48.848Z,73.13
2018-01-19T12:09:48.838Z,73.13
2018-01-19T12:10:48.818Z,73.13
2018-01-19T12:11:48.809Z,67.50
2018-01-19T12:12:48.791Z,67.50
2018-01-19T12:13:48.777Z,67.50
2018-01-19T12:14:48.764Z,67.50
2018-01-19T12:15:48.792Z,61.88
2018-01-19T12:16:48.737Z,61.88
2018-01-19T12:17:48.724Z,56.25
2018-01-19T12:18:48.711Z,56.25
2018-01-19T12:19:48.694Z,56.25
2018-01-19T12:20:48.706Z,56.25
2018-01-19T12:21:48.666Z,56.25
2018-01-19T12:22:48.656Z,56.25
2018-01-19T12:23:48.639Z,56.25
2018-01-19T12:24:48.630Z,56.25
2018-01-19T12:25:48.613Z,56.25
2018-01-19T12:26:48.600Z,50.63
2018-01-19T12:27:48.584Z,50.63
2018-01-19T12:28:48.566Z,50.63
2018-01-19T12:29:48.555Z,50.63
2018-01-19T12:30:48.539Z,50.63
2018-01-19T12:31:48.533Z,56.25
2018-01-19T12:32:48.513Z,56.25
2018-01-19T12:33:48.500Z,56.25
2018-01-19T12:34:48.488Z,50.63
2018-01-19T12:35:48.471Z,45.00
2018-01-19T12:36:48.458Z,50.63
2018-01-19T12:37:48.440Z,50.63
2018-01-19T12:38:48.438Z,56.25
2018-01-19T12:39:48.416Z,61.88
2018-01-19T12:40:48.401Z,67.50
2018-01-19T12:41:48.388Z,73.13
2018-01-19T12:42:48.375Z,78.75
2018-01-19T12:43:48.367Z,84.38
2018-01-19T12:44:48.344Z,84.38
2018-01-19T12:45:48.334Z,90.00
2018-01-19T12:46:48.322Z,90.00
2018-01-19T12:47:48.303Z,90.00
2018-01-19T12:48:48.289Z,90.00
2018-01-19T12:49:48.275Z,112.50
2018-01-19T12:50:48.264Z,112.50
2018-01-19T12:51:48.251Z,84.38
2018-01-19T12:52:48.231Z,78.75
2018-01-19T12:53:48.230Z,78.75
2018-01-19T12:54:48.208Z,78.75
2018-01-19T12:55:48.212Z,78.75
2018-01-19T12:56:48.191Z,78.75
2018-01-19T12:57:48.169Z,84.38
2018-01-19T12:58:48.152Z,84.38
2018-01-19T12:59:48.138Z,84.38
2018-01-19T13:00:48.126Z,78.75
2018-01-19T13:01:48.109Z,73.13
2018-01-19T13:02:48.099Z,73.13
2018-01-19T13:03:48.084Z,73.13
2018-01-19T13:04:48.070Z,73.13
2018-01-19T13:05:48.054Z,78.75